Time,TemperatureF,DewpointF,PressureIn,WindDirection,WindDirectionDegrees,WindSpeedMPH,WindSpeedGustMPH,Humidity,HourlyPrecipIn,Conditions,Clouds,dailyrainin,SoftwareType,DateUTC
2013-07-15 00:11:00,70.8,68.0,30.52,SSW,202,0.0,0.0,91,0.00,,,0.00,weatherlink.com 1.10,2013-07-15 04:11:00,
2013-07-15 00:26:00,70.9,68.0,30.52,SSW,202,0.0,0.0,90,0.00,,,0.00,weatherlink.com 1.10,2013-07-15 04:26:00,
2013-07-15 00:41:00,70.1,67.0,30.52,SSW,202,0.0,0.0,91,0.00,,,0.00,weatherlink.com 1.10,2013-07-15 04:41:00,
2013-07-15 00:56:00,69.8,67.0,30.52,SSW,194,0.0,2.0,92,0.00,,,0.00,weatherlink.com 1.10,2013-07-15 04:56:00,
2013-07-15 01:11:00,69.4,67.0,30.52,SSW,194,0.0,0.0,92,0.00,,,0.00,weatherlink.com 1.10,2013-07-15 05:11:00,
2013-07-15 01:26:00,68.9,67.0,30.52,SSW,194,0.0,0.0,93,0.00,,,0.00,weatherlink.com 1.10,2013-07-15 05:26:00,
2013-07-15 01:41:00,68.7,67.0,30.52,SSW,194,0.0,0.0,94,0.00,,,0.00,weatherlink.com 1.10,2013-07-15 05:41:00,
2013-07-15 01:56:00,68.7,67.0,30.52,SSW,194,0.0,0.0,94,0.00,,,0.00,weatherlink.com 1.10,2013-07-15 05:56:00,
2013-07-15 02:11:00,68.6,67.0,30.52,SSW,194,0.0,0.0,94,0.00,,,0.00,weatherlink.com 1.10,2013-07-15 06:11:00,
2013-07-15 02:26:00,68.7,67.0,30.52,SSW,194,0.0,0.0,94,0.00,,,0.00,weatherlink.com 1.10,2013-07-15 06:26:00,
2013-07-15 02:41:00,68.4,67.0,30.52,SSW,194,0.0,0.0,94,0.00,,,0.00,weatherlink.com 1.10,2013-07-15 06:41:00,
2013-07-15 02:56:00,68.1,67.0,30.53,SSW,194,0.0,0.0,95,0.00,,,0.00,weatherlink.com 1.10,2013-07-15 06:56:00,
2013-07-15 03:11:00,67.8,66.0,30.53,SSW,194,0.0,0.0,95,0.00,,,0.00,weatherlink.com 1.10,2013-07-15 07:11:00,
2013-07-15 03:26:00,67.4,66.0,30.52,SSW,194,0.0,0.0,95,0.00,,,0.00,weatherlink.com 1.10,2013-07-15 07:26:00,
2013-07-15 03:41:00,67.2,66.0,30.52,SSW,194,0.0,0.0,95,0.00,,,0.00,weatherlink.com 1.10,2013-07-15 07:41:00,
2013-07-15 03:56:00,67.4,66.0,30.52,SSW,194,0.0,0.0,96,0.00,,,0.00,weatherlink.com 1.10,2013-07-15 07:56:00,
2013-07-15 04:11:00,66.9,66.0,30.52,WNW,288,0.0,2.0,96,0.00,,,0.00,weatherlink.com 1.10,2013-07-15 08:11:00,
2013-07-15 04:26:00,66.7,66.0,30.52,WNW,288,0.0,0.0,96,0.00,,,0.00,weatherlink.com 1.10,2013-07-15 08:26:00,
2013-07-15 04:41:00,66.5,65.0,30.52,WNW,288,0.0,0.0,96,0.00,,,0.00,weatherlink.com 1.10,2013-07-15 08:41:00,
2013-07-15 04:56:00,66.4,65.0,30.52,WNW,288,0.0,0.0,96,0.00,,,0.00,weatherlink.com 1.10,2013-07-15 08:56:00,
2013-07-15 05:11:00,66.3,65.0,30.52,WNW,288,0.0,0.0,96,0.00,,,0.00,weatherlink.com 1.10,2013-07-15 09:11:00,
2013-07-15 05:26:00,66.5,66.0,30.52,WNW,286,0.0,0.0,97,0.00,,,0.00,weatherlink.com 1.10,2013-07-15 09:26:00,
2013-07-15 05:41:00,66.2,65.0,30.53,West,263,0.0,0.0,96,0.00,,,0.00,weatherlink.com 1.10,2013-07-15 09:41:00,
2013-07-15 05:56:00,66.1,65.0,30.53,SW,215,0.0,1.0,96,0.00,,,0.00,weatherlink.com 1.10,2013-07-15 09:56:00,
2013-07-15 06:11:00,66.1,65.0,30.53,SW,215,0.0,0.0,96,0.00,,,0.00,weatherlink.com 1.10,2013-07-15 10:11:00,
2013-07-15 06:26:00,66.1,65.0,30.53,SW,215,0.0,0.0,96,0.00,,,0.00,weatherlink.com 1.10,2013-07-15 10:26:00,
2013-07-15 06:41:00,66.5,66.0,30.54,SSW,202,0.0,0.0,97,0.00,,,0.00,weatherlink.com 1.10,2013-07-15 10:41:00,
2013-07-15 06:56:00,67.3,67.0,30.54,SSW,205,0.0,0.0,97,0.00,,,0.00,weatherlink.com 1.10,2013-07-15 10:56:00,
2013-07-15 07:11:00,67.9,67.0,30.54,SW,225,0.0,0.0,96,0.00,,,0.00,weatherlink.com 1.10,2013-07-15 11:11:00,
2013-07-15 07:26:00,68.6,67.0,30.54,WSW,245,0.0,0.0,95,0.00,,,0.00,weatherlink.com 1.10,2013-07-15 11:26:00,
2013-07-15 07:41:00,69.2,68.0,30.54,WSW,255,0.0,0.0,94,0.00,,,0.00,weatherlink.com 1.10,2013-07-15 11:41:00,
2013-07-15 07:57:00,69.9,68.0,30.55,SW,223,0.0,0.0,93,0.00,,,0.00,weatherlink.com 1.10,2013-07-15 11:57:00,
2013-07-15 08:12:00,70.8,68.0,30.55,West,274,0.0,0.0,91,0.00,,,0.00,weatherlink.com 1.10,2013-07-15 12:12:00,
2013-07-15 08:27:00,72.0,69.0,30.55,NW,316,0.0,1.0,91,0.00,,,0.00,weatherlink.com 1.10,2013-07-15 12:27:00,
2013-07-15 08:42:00,73.2,70.0,30.55,WSW,257,0.0,1.0,89,0.00,,,0.00,weatherlink.com 1.10,2013-07-15 12:42:00,
2013-07-15 08:57:00,74.3,71.0,30.56,WNW,294,0.0,1.0,88,0.00,,,0.00,weatherlink.com 1.10,2013-07-15 12:57:00,
2013-07-15 09:12:00,75.6,71.0,30.55,WNW,296,0.0,2.0,86,0.00,,,0.00,weatherlink.com 1.10,2013-07-15 13:12:00,
2013-07-15 09:27:00,77.0,72.0,30.55,West,275,0.0,4.0,84,0.00,,,0.00,weatherlink.com 1.10,2013-07-15 13:27:00,
2013-07-15 09:42:00,78.4,72.0,30.55,SW,225,1.0,5.0,80,0.00,,,0.00,weatherlink.com 1.10,2013-07-15 13:42:00,
2013-07-15 09:57:00,79.6,72.0,30.54,SW,225,1.0,9.0,78,0.00,,,0.00,weatherlink.com 1.10,2013-07-15 13:57:00,
2013-07-15 10:12:00,80.2,72.0,30.54,NW,305,4.0,7.0,75,0.00,,,0.00,weatherlink.com 1.10,2013-07-15 14:12:00,
2013-07-15 10:27:00,81.4,72.0,30.54,SSW,192,1.0,2.0,74,0.00,,,0.00,weatherlink.com 1.10,2013-07-15 14:27:00,
2013-07-15 10:42:00,82.2,72.0,30.54,NW,312,2.0,7.0,70,0.00,,,0.00,weatherlink.com 1.10,2013-07-15 14:42:00,
2013-07-15 11:12:00,84.5,71.0,30.54,NNW,343,0.0,4.0,65,0.00,,,0.00,weatherlink.com 1.10,2013-07-15 15:12:00,
2013-07-15 11:42:00,86.7,69.0,30.54,WSW,258,1.0,5.0,56,0.00,,,0.00,weatherlink.com 1.10,2013-07-15 15:42:00,
2013-07-15 11:57:00,86.9,68.0,30.53,East,94,1.0,6.0,54,0.00,,,0.00,weatherlink.com 1.10,2013-07-15 15:57:00,
2013-07-15 12:12:00,87.3,69.0,30.53,NNW,346,1.0,7.0,54,0.00,,,0.00,weatherlink.com 1.10,2013-07-15 16:12:00,
2013-07-15 12:27:00,87.8,69.0,30.53,North,355,6.0,6.0,53,0.00,,,0.00,weatherlink.com 1.10,2013-07-15 16:27:00,
2013-07-15 12:42:00,88.5,69.0,30.52,North,360,2.0,8.0,53,0.00,,,0.00,weatherlink.com 1.10,2013-07-15 16:42:00,
2013-07-15 12:57:00,89.2,69.0,30.52,NNE,18,1.0,6.0,52,0.00,,,0.00,weatherlink.com 1.10,2013-07-15 16:57:00,
2013-07-15 13:12:00,89.0,69.0,30.51,North,11,5.0,9.0,52,0.00,,,0.00,weatherlink.com 1.10,2013-07-15 17:12:00,
2013-07-15 13:43:00,89.4,69.0,30.50,NNE,22,5.0,8.0,51,0.00,,,0.00,weatherlink.com 1.10,2013-07-15 17:43:00,
2013-07-15 13:58:00,89.7,70.0,30.50,NW,313,8.0,8.0,53,0.00,,,0.00,weatherlink.com 1.10,2013-07-15 17:58:00,
2013-07-15 14:13:00,90.1,68.0,30.50,North,11,3.0,10.0,49,0.00,,,0.00,weatherlink.com 1.10,2013-07-15 18:13:00,
2013-07-15 14:28:00,90.7,68.0,30.49,NNE,30,3.0,7.0,48,0.00,,,0.00,weatherlink.com 1.10,2013-07-15 18:28:00,
2013-07-15 14:43:00,91.6,70.0,30.49,NNE,22,8.0,9.0,49,0.00,,,0.00,weatherlink.com 1.10,2013-07-15 18:43:00,
2013-07-15 14:58:00,91.5,68.0,30.49,NNE,26,5.0,9.0,46,0.00,,,0.00,weatherlink.com 1.10,2013-07-15 18:58:00,
2013-07-15 15:13:00,91.0,69.0,30.48,NE,34,4.0,6.0,49,0.00,,,0.00,weatherlink.com 1.10,2013-07-15 19:13:00,
2013-07-15 15:28:00,90.6,71.0,30.48,ENE,62,2.0,8.0,52,0.00,,,0.00,weatherlink.com 1.10,2013-07-15 19:28:00,
2013-07-15 15:58:00,90.8,68.0,30.47,NNW,346,0.0,8.0,48,0.00,,,0.00,weatherlink.com 1.10,2013-07-15 19:58:00,
2013-07-15 16:13:00,90.7,68.0,30.47,NNW,333,6.0,6.0,48,0.00,,,0.00,weatherlink.com 1.10,2013-07-15 20:13:00,
2013-07-15 16:28:00,90.9,67.0,30.46,NNE,26,2.0,7.0,46,0.00,,,0.00,weatherlink.com 1.10,2013-07-15 20:28:00,
2013-07-15 16:43:00,90.9,68.0,30.46,WNW,302,4.0,6.0,47,0.00,,,0.00,weatherlink.com 1.10,2013-07-15 20:43:00,
2013-07-15 16:58:00,91.4,68.0,30.46,WNW,296,1.0,6.0,46,0.00,,,0.00,weatherlink.com 1.10,2013-07-15 20:58:00,
2013-07-15 17:13:00,92.3,68.0,30.45,NNW,335,1.0,3.0,45,0.00,,,0.00,weatherlink.com 1.10,2013-07-15 21:13:00,
2013-07-15 17:43:00,91.4,70.0,30.45,NNE,21,0.0,5.0,49,0.00,,,0.00,weatherlink.com 1.10,2013-07-15 21:43:00,
2013-07-15 18:28:00,90.9,70.0,30.44,NNE,25,0.0,6.0,50,0.00,,,0.00,weatherlink.com 1.10,2013-07-15 22:28:00,
2013-07-15 18:43:00,90.4,70.0,30.44,ENE,72,1.0,4.0,51,0.00,,,0.00,weatherlink.com 1.10,2013-07-15 22:43:00,
2013-07-15 18:58:00,89.6,70.0,30.44,East,95,2.0,3.0,53,0.00,,,0.00,weatherlink.com 1.10,2013-07-15 22:58:00,
2013-07-15 19:13:00,89.3,68.0,30.44,East,79,0.0,4.0,50,0.00,,,0.00,weatherlink.com 1.10,2013-07-15 23:13:00,
2013-07-15 19:28:00,89.7,70.0,30.44,East,79,0.0,0.0,53,0.00,,,0.00,weatherlink.com 1.10,2013-07-15 23:28:00,
2013-07-15 20:13:00,85.0,72.0,30.43,East,79,0.0,0.0,66,0.00,,,0.00,weatherlink.com 1.10,2013-07-16 00:13:00,
2013-07-15 20:28:00,83.4,73.0,30.43,East,79,0.0,0.0,71,0.00,,,0.00,weatherlink.com 1.10,2013-07-16 00:28:00,
2013-07-15 20:58:00,80.8,72.0,30.43,East,79,0.0,0.0,75,0.00,,,0.00,weatherlink.com 1.10,2013-07-16 00:58:00,
2013-07-15 21:13:00,79.8,72.0,30.44,East,79,0.0,0.0,78,0.00,,,0.00,weatherlink.com 1.10,2013-07-16 01:13:00,
2013-07-15 21:28:00,79.0,72.0,30.44,East,79,0.0,0.0,80,0.00,,,0.00,weatherlink.com 1.10,2013-07-16 01:28:00,
2013-07-15 21:43:00,77.8,72.0,30.45,East,79,0.0,0.0,83,0.00,,,0.00,weatherlink.com 1.10,2013-07-16 01:43:00,
2013-07-15 21:58:00,76.8,72.0,30.45,East,79,0.0,0.0,84,0.00,,,0.00,weatherlink.com 1.10,2013-07-16 01:58:00,
2013-07-15 22:13:00,76.3,72.0,30.45,East,79,0.0,0.0,86,0.00,,,0.00,weatherlink.com 1.10,2013-07-16 02:13:00,
2013-07-15 22:58:00,74.8,71.0,30.46,East,79,0.0,0.0,88,0.00,,,0.00,weatherlink.com 1.10,2013-07-16 02:58:00,
2013-07-15 23:58:00,74.4,71.0,30.46,SE,131,0.0,0.0,89,0.00,,,0.00,weatherlink.com 1.10,2013-07-16 03:58:00,